Terminal Aerodrome Forecast
Issued by NWS

Home | Current Version | Previous Version | Text Only | Print | Product List | Glossary Off
Versions: 1 2 3 4 5 6 7 8 9 10 11 12 13 14 15

878
FTUS42 KMHX 251737
TAFOAJ
TAF
KOAJ 251737Z 2518/2618 23015G23KT P6SM VCSH SCT045
      TEMPO 2520/2522 5SM TSRA BKN030CB
     FM252300 24012KT P6SM SCT050
     FM260600 24010KT P6SM SKC
     FM261500 25011G17KT P6SM SKC
      AMD LTD TO CLD VIS AND WIND=

USA.gov is the U.S. government's official web portal to all federal, state and local government web resources and services.